Tasman — ZDKI2 — position and weather

sailwx.info

Track history (hours):
 
Tides and Currents Weather Stations Pressure Air Temp Water Temp Dewpoint Dewpoint Depression Visibility Wind Speed Wind Dir Waves Ship Positions

Tasman

Last reported at 2015-Jul-29 14:33 UTC. Time now 2015-Jul-30 14:14 UTC.
Position N 59°30' W 003°37'.

Length 90 m; draft 4 m.

Type: Ship. MMSI: 23617000.

Date/timePositionNaut miles runAvg speedWind from/ knotsBaromVisibWave heightAir tempDewpointWater temp
2015-Jul-29 14:33N 59°30' W 003°37'1010.2
2015-Jul-29 13:33N 59°23' W 003°50'9 9.4
2015-Jul-29 12:33N 59°15' W 004°02'1010.0
2015-Jul-29 11:33N 59°08' W 004°15'1110.6
2015-Jul-29 10:33N 58°60' W 004°28'20410.8
2015-Jul-28 15:34N 55°49' W 006°44'1212.0
2015-Jul-28 14:33N 55°38' W 006°32'1313.2
2015-Jul-28 13:33N 55°28' W 006°17'1414.1
2015-Jul-28 12:33N 55°19' W 005°58'3114.4
2015-Jul-28 10:23N 54°51' W 005°35'1113.2
2015-Jul-28 09:34N 54°41' W 005°26'1312.8
2015-Jul-28 08:34N 54°30' W 005°17'1212.3
2015-Jul-28 07:33N 54°19' W 005°08'5611.2
2015-Jul-28 02:32N 53°42' W 003°56'1212.1
2015-Jul-28 01:33N 53°36' W 003°39'1212.3
2015-Jul-28 00:33N 53°32' W 003°19'1211.6
2015-Jul-27 23:33N 53°27' W 003°01'0 0.3
2015-Jul-27 22:32N 53°27' W 003°01'1 0.8
2015-Jul-27 21:28N 53°28' W 003°02'0 0.0
2015-Jul-27 20:31N 53°28' W 003°02'0 0.0
2015-Jul-27 19:33N 53°28' W 003°02'0 0.0
2015-Jul-27 18:33N 53°28' W 003°02'0 0.0
2015-Jul-27 17:33N 53°28' W 003°02'0 0.0
2015-Jul-27 16:32N 53°28' W 003°02'0 0.0
2015-Jul-27 15:32N 53°28' W 003°02'0 0.0
2015-Jul-27 14:28N 53°28' W 003°02'0 0.0
2015-Jul-27 13:28N 53°28' W 003°02'0 0.0
2015-Jul-27 12:33N 53°28' W 003°02'0 0.0
2015-Jul-27 11:33N 53°28' W 003°02'0 0.0
2015-Jul-27 10:33N 53°28' W 003°02'0 0.0
2015-Jul-27 09:29N 53°28' W 003°02'0 0.0
2015-Jul-27 08:32N 53°28' W 003°02'0 0.0
2015-Jul-27 07:28N 53°28' W 003°02'0 0.0
2015-Jul-27 06:31N 53°28' W 003°02'0 0.0
2015-Jul-27 05:33N 53°28' W 003°02'0 0.0
2015-Jul-27 04:33N 53°28' W 003°02'0 0.0
2015-Jul-27 03:33N 53°28' W 003°02'0 0.0
2015-Jul-27 02:33N 53°28' W 003°02'0 0.0
2015-Jul-27 01:33N 53°28' W 003°02'0 0.0
2015-Jul-27 00:33N 53°28' W 003°02'0 0.0
2015-Jul-26 23:33N 53°28' W 003°02'0 0.0
2015-Jul-26 22:33N 53°28' W 003°02'0 0.0
2015-Jul-26 21:33N 53°28' W 003°02'0 0.0
2015-Jul-26 20:34N 53°28' W 003°02'0 0.0
2015-Jul-26 19:33N 53°28' W 003°02'0 0.0
2015-Jul-26 18:33N 53°28' W 003°02'0 0.0
2015-Jul-26 17:33N 53°28' W 003°02'0 0.0
2015-Jul-26 16:33N 53°28' W 003°02'0 0.0
2015-Jul-26 15:33N 53°28' W 003°02'0 0.0
2015-Jul-26 14:33N 53°28' W 003°02'0 0.0
2015-Jul-26 13:33N 53°28' W 003°02'0 0.0
2015-Jul-26 12:33N 53°28' W 003°02'0 0.0
2015-Jul-26 11:33N 53°28' W 003°02'0 0.0
2015-Jul-26 10:33N 53°28' W 003°02'0 0.0
2015-Jul-26 09:33N 53°28' W 003°02'0 0.0
2015-Jul-26 08:33N 53°28' W 003°02'0 0.0
2015-Jul-26 07:32N 53°28' W 003°02'0 0.0
2015-Jul-26 06:33N 53°28' W 003°02'0 0.0
2015-Jul-26 05:33N 53°28' W 003°02'0 0.0
2015-Jul-26 04:33N 53°28' W 003°02'0 0.0
2015-Jul-26 03:33N 53°28' W 003°02'0 0.0
2015-Jul-26 02:33N 53°28' W 003°02'0 0.0
2015-Jul-26 01:33N 53°28' W 003°02'1 0.8
2015-Jul-26 00:33N 53°27' W 003°01'3 2.9
2015-Jul-25 23:33N 53°29' W 003°05'9 8.7
2015-Jul-25 22:33N 53°31' W 003°19'5 4.5
2015-Jul-25 21:33N 53°29' W 003°25'0 0.0
2015-Jul-25 20:33N 53°29' W 003°25'0 0.1
2015-Jul-25 19:33N 53°29' W 003°25'0 0.0
2015-Jul-25 18:33N 53°29' W 003°25'0 0.0
2015-Jul-25 17:33N 53°29' W 003°25'0 0.0
2015-Jul-25 16:33N 53°29' W 003°25'0 0.0
2015-Jul-25 15:33N 53°29' W 003°25'0 0.0
2015-Jul-25 14:33N 53°29' W 003°25'0 0.0
2015-Jul-25 13:33N 53°29' W 003°25'0 0.0
2015-Jul-25 12:33N 53°29' W 003°25'0 0.0
2015-Jul-25 11:33N 53°29' W 003°25'0 0.0
2015-Jul-25 10:33N 53°28' W 003°25'0 0.0
2015-Jul-25 09:34N 53°28' W 003°25'0 0.0
2015-Jul-25 08:33N 53°28' W 003°25'0 0.0
2015-Jul-25 07:33N 53°28' W 003°25'0 0.0
2015-Jul-25 06:33N 53°28' W 003°25'0 0.0
2015-Jul-25 05:33N 53°28' W 003°25'0 0.0
2015-Jul-25 04:33N 53°29' W 003°25'0 0.0
2015-Jul-25 03:33N 53°29' W 003°25'1 0.9
2015-Jul-25 02:33N 53°29' W 003°27'1110.5
2015-Jul-25 01:33N 53°30' W 003°44'1111.1
2015-Jul-25 00:33N 53°30' W 004°03'333 9.7
2015-Jul-23 14:18N 48°01' W 005°12'910.9
2015-Jul-23 13:29N 47°55' W 005°02'4210.7
2015-Jul-23 09:33N 47°30' W 004°12'1110.6
2015-Jul-23 08:32N 47°24' W 003°59'1110.5
2015-Jul-23 07:31N 47°17' W 003°47'1110.9
2015-Jul-23 06:32N 47°10' W 003°35'1111.0
2015-Jul-23 05:33N 47°03' W 003°23'1111.4
2015-Jul-23 04:33N 46°56' W 003°10'2511.4
2015-Jul-23 02:22N 46°40' W 002°42'2011.1
2015-Jul-23 00:32N 46°27' W 002°19'1111.2
2015-Jul-22 23:33N 46°21' W 002°06'1110.9
2015-Jul-22 22:33N 46°16' W 001°52'1111.0
2015-Jul-22 21:33N 46°11' W 001°38'1111.2
2015-Jul-22 20:33N 46°06' W 001°23'1110.9
2015-Jul-22 19:33N 45°60' W 001°10'7 6.5
2015-Jul-22 18:32N 45°58' W 001°01'2 0.1
2015-Jul-21 16:30N 45°56' W 001°01'8 8.2
2015-Jul-21 15:33N 45°60' W 001°10'6 6.0
2015-Jul-21 14:34N 46°05' W 001°14'0 0.0
2015-Jul-21 13:33N 46°05' W 001°14'0 0.0
2015-Jul-21 12:33N 46°05' W 001°14'0 0.0
2015-Jul-21 11:33N 46°05' W 001°14'0 0.0
2015-Jul-21 10:34N 46°05' W 001°14'8 8.1
2015-Jul-21 09:33N 46°05' W 001°26'1311.1
2015-Jul-21 08:25N 45°54' W 001°35'4611.7
2015-Jul-21 04:29N 45°12' W 002°03'11811.4
2015-Jul-20 18:05N 43°22' W 003°05'  
Track history (hours):
 
Tides and Currents Weather Stations Pressure Air Temp Water Temp Dewpoint Dewpoint Depression Visibility Wind Speed Wind Dir Waves Ship Positions

Tasman

Last reported at 2015-Jul-29 14:33 UTC. Time now 2015-Jul-30 14:14 UTC.
Position N 59°30' W 003°37'.

Length 90 m; draft 4 m.

Type: Ship. MMSI: 23617000.

Date/timePositionNaut miles runAvg speedWind from/ knotsBaromVisibWave heightAir tempDewpointWater temp
2015-Jul-29 14:33N 59°30' W 003°37'1010.2
2015-Jul-29 13:33N 59°23' W 003°50'9 9.4
2015-Jul-29 12:33N 59°15' W 004°02'1010.0
2015-Jul-29 11:33N 59°08' W 004°15'1110.6
2015-Jul-29 10:33N 58°60' W 004°28'20410.8
2015-Jul-28 15:34N 55°49' W 006°44'1212.0
2015-Jul-28 14:33N 55°38' W 006°32'1313.2
2015-Jul-28 13:33N 55°28' W 006°17'1414.1
2015-Jul-28 12:33N 55°19' W 005°58'3114.4
2015-Jul-28 10:23N 54°51' W 005°35'1113.2
2015-Jul-28 09:34N 54°41' W 005°26'1312.8
2015-Jul-28 08:34N 54°30' W 005°17'1212.3
2015-Jul-28 07:33N 54°19' W 005°08'5611.2
2015-Jul-28 02:32N 53°42' W 003°56'1212.1
2015-Jul-28 01:33N 53°36' W 003°39'1212.3
2015-Jul-28 00:33N 53°32' W 003°19'1211.6
2015-Jul-27 23:33N 53°27' W 003°01'0 0.3
2015-Jul-27 22:32N 53°27' W 003°01'1 0.8
2015-Jul-27 21:28N 53°28' W 003°02'0 0.0
2015-Jul-27 20:31N 53°28' W 003°02'0 0.0
2015-Jul-27 19:33N 53°28' W 003°02'0 0.0
2015-Jul-27 18:33N 53°28' W 003°02'0 0.0
2015-Jul-27 17:33N 53°28' W 003°02'0 0.0
2015-Jul-27 16:32N 53°28' W 003°02'0 0.0
2015-Jul-27 15:32N 53°28' W 003°02'0 0.0
2015-Jul-27 14:28N 53°28' W 003°02'0 0.0
2015-Jul-27 13:28N 53°28' W 003°02'0 0.0
2015-Jul-27 12:33N 53°28' W 003°02'0 0.0
2015-Jul-27 11:33N 53°28' W 003°02'0 0.0
2015-Jul-27 10:33N 53°28' W 003°02'0 0.0
2015-Jul-27 09:29N 53°28' W 003°02'0 0.0
2015-Jul-27 08:32N 53°28' W 003°02'0 0.0
2015-Jul-27 07:28N 53°28' W 003°02'0 0.0
2015-Jul-27 06:31N 53°28' W 003°02'0 0.0
2015-Jul-27 05:33N 53°28' W 003°02'0 0.0
2015-Jul-27 04:33N 53°28' W 003°02'0 0.0
2015-Jul-27 03:33N 53°28' W 003°02'0 0.0
2015-Jul-27 02:33N 53°28' W 003°02'0 0.0
2015-Jul-27 01:33N 53°28' W 003°02'0 0.0
2015-Jul-27 00:33N 53°28' W 003°02'0 0.0
2015-Jul-26 23:33N 53°28' W 003°02'0 0.0
2015-Jul-26 22:33N 53°28' W 003°02'0 0.0
2015-Jul-26 21:33N 53°28' W 003°02'0 0.0
2015-Jul-26 20:34N 53°28' W 003°02'0 0.0
2015-Jul-26 19:33N 53°28' W 003°02'0 0.0
2015-Jul-26 18:33N 53°28' W 003°02'0 0.0
2015-Jul-26 17:33N 53°28' W 003°02'0 0.0
2015-Jul-26 16:33N 53°28' W 003°02'0 0.0
2015-Jul-26 15:33N 53°28' W 003°02'0 0.0
2015-Jul-26 14:33N 53°28' W 003°02'0 0.0
2015-Jul-26 13:33N 53°28' W 003°02'0 0.0
2015-Jul-26 12:33N 53°28' W 003°02'0 0.0
2015-Jul-26 11:33N 53°28' W 003°02'0 0.0
2015-Jul-26 10:33N 53°28' W 003°02'0 0.0
2015-Jul-26 09:33N 53°28' W 003°02'0 0.0
2015-Jul-26 08:33N 53°28' W 003°02'0 0.0
2015-Jul-26 07:32N 53°28' W 003°02'0 0.0
2015-Jul-26 06:33N 53°28' W 003°02'0 0.0
2015-Jul-26 05:33N 53°28' W 003°02'0 0.0
2015-Jul-26 04:33N 53°28' W 003°02'0 0.0
2015-Jul-26 03:33N 53°28' W 003°02'0 0.0
2015-Jul-26 02:33N 53°28' W 003°02'0 0.0
2015-Jul-26 01:33N 53°28' W 003°02'1 0.8
2015-Jul-26 00:33N 53°27' W 003°01'3 2.9
2015-Jul-25 23:33N 53°29' W 003°05'9 8.7
2015-Jul-25 22:33N 53°31' W 003°19'5 4.5
2015-Jul-25 21:33N 53°29' W 003°25'0 0.0
2015-Jul-25 20:33N 53°29' W 003°25'0 0.1
2015-Jul-25 19:33N 53°29' W 003°25'0 0.0
2015-Jul-25 18:33N 53°29' W 003°25'0 0.0
2015-Jul-25 17:33N 53°29' W 003°25'0 0.0
2015-Jul-25 16:33N 53°29' W 003°25'0 0.0
2015-Jul-25 15:33N 53°29' W 003°25'0 0.0
2015-Jul-25 14:33N 53°29' W 003°25'0 0.0
2015-Jul-25 13:33N 53°29' W 003°25'0 0.0
2015-Jul-25 12:33N 53°29' W 003°25'0 0.0
2015-Jul-25 11:33N 53°29' W 003°25'0 0.0
2015-Jul-25 10:33N 53°28' W 003°25'0 0.0
2015-Jul-25 09:34N 53°28' W 003°25'0 0.0
2015-Jul-25 08:33N 53°28' W 003°25'0 0.0
2015-Jul-25 07:33N 53°28' W 003°25'0 0.0
2015-Jul-25 06:33N 53°28' W 003°25'0 0.0
2015-Jul-25 05:33N 53°28' W 003°25'0 0.0
2015-Jul-25 04:33N 53°29' W 003°25'0 0.0
2015-Jul-25 03:33N 53°29' W 003°25'1 0.9
2015-Jul-25 02:33N 53°29' W 003°27'1110.5
2015-Jul-25 01:33N 53°30' W 003°44'1111.1
2015-Jul-25 00:33N 53°30' W 004°03'333 9.7
2015-Jul-23 14:18N 48°01' W 005°12'910.9
2015-Jul-23 13:29N 47°55' W 005°02'4210.7
2015-Jul-23 09:33N 47°30' W 004°12'1110.6
2015-Jul-23 08:32N 47°24' W 003°59'1110.5
2015-Jul-23 07:31N 47°17' W 003°47'1110.9
2015-Jul-23 06:32N 47°10' W 003°35'1111.0
2015-Jul-23 05:33N 47°03' W 003°23'1111.4
2015-Jul-23 04:33N 46°56' W 003°10'2511.4
2015-Jul-23 02:22N 46°40' W 002°42'2011.1
2015-Jul-23 00:32N 46°27' W 002°19'1111.2
2015-Jul-22 23:33N 46°21' W 002°06'1110.9
2015-Jul-22 22:33N 46°16' W 001°52'1111.0
2015-Jul-22 21:33N 46°11' W 001°38'1111.2
2015-Jul-22 20:33N 46°06' W 001°23'1110.9
2015-Jul-22 19:33N 45°60' W 001°10'7 6.5
2015-Jul-22 18:32N 45°58' W 001°01'2 0.1
2015-Jul-21 16:30N 45°56' W 001°01'8 8.2
2015-Jul-21 15:33N 45°60' W 001°10'6 6.0
2015-Jul-21 14:34N 46°05' W 001°14'0 0.0
2015-Jul-21 13:33N 46°05' W 001°14'0 0.0
2015-Jul-21 12:33N 46°05' W 001°14'0 0.0
2015-Jul-21 11:33N 46°05' W 001°14'0 0.0
2015-Jul-21 10:34N 46°05' W 001°14'8 8.1
2015-Jul-21 09:33N 46°05' W 001°26'1311.1
2015-Jul-21 08:25N 45°54' W 001°35'4611.7
2015-Jul-21 04:29N 45°12' W 002°03'11811.4
2015-Jul-20 18:05N 43°22' W 003°05'  

Dump ship's entire track history